createdAt,value
2023-03-07T00:00:08.385Z,-0.32
2023-03-07T00:02:56.486Z,-0.31
2023-03-07T00:05:24.710Z,-0.29
2023-03-07T00:07:52.875Z,-0.26
2023-03-07T00:10:21.052Z,-0.24
2023-03-07T00:12:49.214Z,-0.22
2023-03-07T00:15:18.011Z,-0.18
2023-03-07T00:17:46.175Z,-0.17
2023-03-07T00:20:15.476Z,-0.16
2023-03-07T00:22:44.368Z,-0.16
2023-03-07T00:25:13.488Z,-0.16
2023-03-07T00:27:41.834Z,-0.17
2023-03-07T00:30:12.606Z,-0.10
2023-03-07T00:32:40.984Z,-0.08
2023-03-07T00:35:09.219Z,-0.05
2023-03-07T00:37:37.388Z,-0.01
2023-03-07T00:40:07.604Z,0.02
2023-03-07T00:42:35.794Z,0.04
2023-03-07T00:45:04.261Z,0.00
2023-03-07T00:47:32.541Z,-0.05
2023-03-07T00:50:00.811Z,-0.07
2023-03-07T00:52:28.934Z,-0.10
2023-03-07T00:54:57.363Z,-0.14
2023-03-07T00:57:25.742Z,-0.18
2023-03-07T00:59:54.115Z,-0.19
2023-03-07T01:02:22.493Z,-0.18
2023-03-07T01:04:50.768Z,-0.18
2023-03-07T01:07:18.940Z,-0.18
2023-03-07T01:09:51.512Z,-0.18
2023-03-07T01:12:19.900Z,-0.15
2023-03-07T01:14:51.218Z,-0.12
2023-03-07T01:17:19.517Z,-0.09
2023-03-07T01:19:47.993Z,-0.09
2023-03-07T01:22:16.372Z,-0.08
2023-03-07T01:24:44.577Z,-0.08
2023-03-07T01:27:12.817Z,-0.07
2023-03-07T01:29:41.195Z,-0.03
2023-03-07T01:32:09.877Z,0.01
2023-03-07T01:34:38.564Z,0.05
2023-03-07T01:37:06.734Z,0.08
2023-03-07T01:39:35.218Z,0.11
2023-03-07T01:42:09.633Z,0.12
2023-03-07T01:45:02.902Z,0.11
2023-03-07T01:47:43.634Z,0.09
2023-03-07T01:50:16.541Z,0.09
2023-03-07T01:52:52.502Z,0.08
2023-03-07T01:55:25.212Z,0.08
2023-03-07T01:57:57.033Z,0.15
2023-03-07T02:00:31.250Z,0.19
2023-03-07T02:03:39.330Z,0.20
2023-03-07T02:06:11.420Z,0.20
2023-03-07T02:08:40.100Z,0.19
2023-03-07T02:11:08.787Z,0.14
2023-03-07T02:13:36.954Z,0.09
2023-03-07T02:16:06.682Z,0.03
2023-03-07T02:18:39.034Z,-0.02
2023-03-07T02:21:30.348Z,-0.08
2023-03-07T02:24:16.644Z,-0.15
2023-03-07T02:26:47.173Z,-0.20
2023-03-07T02:29:16.061Z,-0.20
2023-03-07T02:31:47.409Z,-0.22
2023-03-07T02:34:27.781Z,-0.23
2023-03-07T02:37:09.079Z,-0.25
2023-03-07T02:39:39.561Z,-0.26
2023-03-07T02:42:10.532Z,-0.29
2023-03-07T02:44:47.078Z,-0.32
2023-03-07T02:47:17.001Z,-0.35
2023-03-07T02:49:45.267Z,-0.39
2023-03-07T02:52:13.644Z,-0.45
2023-03-07T02:54:41.918Z,-0.49
2023-03-07T02:57:10.911Z,-0.49
2023-03-07T02:59:39.083Z,-0.50
2023-03-07T03:02:08.077Z,-0.50
2023-03-07T03:04:36.588Z,-0.51
2023-03-07T03:07:04.933Z,-0.50
2023-03-07T03:09:33.117Z,-0.51
2023-03-07T03:12:01.284Z,-0.49
2023-03-07T03:14:30.788Z,-0.48
2023-03-07T03:16:59.058Z,-0.47
2023-03-07T03:19:29.182Z,-0.47
2023-03-07T03:21:57.867Z,-0.48
2023-03-07T03:24:26.546Z,-0.50
2023-03-07T03:26:58.312Z,-0.51
2023-03-07T03:29:27.811Z,-0.48
2023-03-07T03:31:58.848Z,-0.47
2023-03-07T03:34:27.527Z,-0.45
2023-03-07T03:36:55.806Z,-0.43
2023-03-07T03:39:24.284Z,-0.43
2023-03-07T03:41:57.272Z,-0.41
2023-03-07T03:44:25.645Z,-0.40
2023-03-07T03:46:55.942Z,-0.40
2023-03-07T03:49:24.647Z,-0.44
2023-03-07T03:51:54.261Z,-0.48
2023-03-07T03:54:22.940Z,-0.50
2023-03-07T03:56:51.226Z,-0.52
2023-03-07T03:59:19.387Z,-0.51
2023-03-07T04:01:48.042Z,-0.51
2023-03-07T04:04:16.552Z,-0.53
2023-03-07T04:06:44.929Z,-0.53
2023-03-07T04:09:13.097Z,-0.53
2023-03-07T04:11:43.623Z,-0.53
2023-03-07T04:14:12.020Z,-0.55
2023-03-07T04:16:40.582Z,-0.57
2023-03-07T04:19:12.929Z,-0.57
2023-03-07T04:21:41.331Z,-0.59
2023-03-07T04:24:10.223Z,-0.61
2023-03-07T04:26:38.320Z,-0.58
2023-03-07T04:29:06.577Z,-0.57
2023-03-07T04:31:40.079Z,-0.57
2023-03-07T04:34:08.946Z,-0.55
2023-03-07T04:36:37.230Z,-0.54
2023-03-07T04:39:05.400Z,-0.51
2023-03-07T04:41:34.292Z,-0.48
2023-03-07T04:44:06.757Z,-0.46
2023-03-07T04:46:35.038Z,-0.47
2023-03-07T04:49:03.206Z,-0.48
2023-03-07T04:51:31.482Z,-0.49
2023-03-07T04:53:59.859Z,-0.51
2023-03-07T04:56:28.029Z,-0.51
2023-03-07T04:58:56.609Z,-0.52
2023-03-07T05:01:24.820Z,-0.50
2023-03-07T05:03:53.157Z,-0.49
2023-03-07T05:06:22.070Z,-0.48
2023-03-07T05:08:52.168Z,-0.47
2023-03-07T05:11:21.159Z,-0.47
2023-03-07T05:13:50.460Z,-0.43
2023-03-07T05:16:20.880Z,-0.43
2023-03-07T05:18:49.462Z,-0.45
2023-03-07T05:21:18.262Z,-0.47
2023-03-07T05:23:46.626Z,-0.50
2023-03-07T05:26:15.312Z,-0.52
2023-03-07T05:28:43.687Z,-0.54
2023-03-07T05:31:11.890Z,-0.53
2023-03-07T05:33:42.799Z,-0.53
2023-03-07T05:36:11.788Z,-0.54
2023-03-07T05:38:40.581Z,-0.55
2023-03-07T05:41:09.375Z,-0.53
2023-03-07T05:43:37.533Z,-0.52
2023-03-07T05:46:06.133Z,-0.51
2023-03-07T05:48:34.561Z,-0.54
2023-03-07T05:51:02.865Z,-0.56
2023-03-07T05:53:31.972Z,-0.55
2023-03-07T05:56:00.550Z,-0.52
2023-03-07T05:58:29.743Z,-0.51
2023-03-07T06:00:58.016Z,-0.45
2023-03-07T06:03:26.962Z,-0.41
2023-03-07T06:05:55.181Z,-0.37
2023-03-07T06:08:23.762Z,-0.33
2023-03-07T06:10:53.674Z,-0.28
2023-03-07T06:13:24.307Z,-0.22
2023-03-07T06:15:53.743Z,-0.18
2023-03-07T06:18:23.311Z,-0.16
2023-03-07T06:21:02.027Z,-0.16
2023-03-07T06:23:33.916Z,-0.17
2023-03-07T06:26:03.783Z,-0.17
2023-03-07T06:28:32.994Z,-0.18
2023-03-07T06:31:09.202Z,-0.19
2023-03-07T06:33:37.654Z,-0.16
2023-03-07T06:36:11.855Z,-0.12
2023-03-07T06:38:41.565Z,-0.11
2023-03-07T06:41:10.346Z,-0.08
2023-03-07T06:43:39.748Z,-0.05
2023-03-07T06:46:08.812Z,-0.01
2023-03-07T06:48:40.086Z,-0.02
2023-03-07T06:51:11.228Z,-0.05
2023-03-07T06:53:41.450Z,-0.06
2023-03-07T06:56:10.138Z,-0.05
2023-03-07T06:58:39.844Z,-0.04
2023-03-07T07:01:16.029Z,-0.01
2023-03-07T07:03:44.578Z,0.05
2023-03-07T07:06:12.761Z,0.12
2023-03-07T07:08:42.051Z,0.17
2023-03-07T07:11:10.742Z,0.24
2023-03-07T07:13:39.521Z,0.33
2023-03-07T07:16:09.053Z,0.40
2023-03-07T07:18:38.220Z,0.46
2023-03-07T07:21:06.906Z,0.53
2023-03-07T07:23:35.081Z,0.59
2023-03-07T07:26:05.198Z,0.66
2023-03-07T07:28:34.403Z,0.72
2023-03-07T07:31:04.324Z,0.79
2023-03-07T07:33:33.710Z,0.87
2023-03-07T07:36:02.115Z,0.98
2023-03-07T07:38:30.775Z,1.08
2023-03-07T07:40:59.457Z,1.19
2023-03-07T07:43:27.628Z,1.31
2023-03-07T07:46:04.938Z,1.42
2023-03-07T07:48:33.889Z,1.51
2023-03-07T07:51:03.106Z,1.60
2023-03-07T07:53:32.193Z,1.65
2023-03-07T07:56:00.956Z,1.70
2023-03-07T07:58:29.366Z,1.79
2023-03-07T08:00:58.354Z,1.91
2023-03-07T08:03:27.145Z,2.07
2023-03-07T08:05:55.619Z,2.21
2023-03-07T08:08:23.688Z,2.34
2023-03-07T08:10:52.686Z,2.46
2023-03-07T08:13:21.061Z,2.54
2023-03-07T08:15:49.269Z,2.63
2023-03-07T08:18:17.508Z,2.73
2023-03-07T08:20:45.677Z,2.81
2023-03-07T08:23:13.859Z,2.85
2023-03-07T08:25:42.025Z,2.95
2023-03-07T08:28:10.196Z,3.05
2023-03-07T08:30:38.581Z,3.16
2023-03-07T08:33:07.575Z,3.23
2023-03-07T08:35:35.785Z,3.30
2023-03-07T08:38:04.130Z,3.41
2023-03-07T08:40:32.389Z,3.45
2023-03-07T08:43:01.183Z,3.49
2023-03-07T08:45:29.454Z,3.50
2023-03-07T08:47:58.027Z,3.51
2023-03-07T08:50:28.664Z,3.53
2023-03-07T08:52:57.967Z,3.59
2023-03-07T08:55:26.336Z,3.63
2023-03-07T08:57:54.500Z,3.70
2023-03-07T09:00:22.994Z,3.74
2023-03-07T09:02:51.172Z,3.76
2023-03-07T09:05:19.549Z,3.79
2023-03-07T09:07:47.700Z,3.78
2023-03-07T09:10:17.380Z,3.74
2023-03-07T09:12:45.432Z,3.70
2023-03-07T09:15:13.678Z,3.70
2023-03-07T09:17:41.840Z,3.60
2023-03-07T09:20:12.016Z,3.49
2023-03-07T09:22:40.219Z,3.42
2023-03-07T09:25:09.619Z,3.32
2023-03-07T09:27:37.904Z,3.28
2023-03-07T09:30:06.882Z,3.28
2023-03-07T09:32:35.125Z,3.31
2023-03-07T09:35:04.053Z,3.31
2023-03-07T09:37:32.221Z,3.36
2023-03-07T09:40:00.444Z,3.40
2023-03-07T09:42:40.359Z,3.47
2023-03-07T09:45:11.796Z,3.58
2023-03-07T09:48:25.640Z,3.70
2023-03-07T09:50:58.419Z,3.79
2023-03-07T09:53:48.256Z,3.82
2023-03-07T09:56:22.204Z,3.83
2023-03-07T09:59:22.629Z,3.82
2023-03-07T10:02:17.737Z,3.77
2023-03-07T10:04:52.562Z,3.77
2023-03-07T10:07:24.114Z,3.78
2023-03-07T10:09:57.207Z,3.78
2023-03-07T10:12:25.374Z,3.80
2023-03-07T10:15:03.896Z,3.80
2023-03-07T10:17:47.241Z,3.82
2023-03-07T10:20:45.291Z,3.87
2023-03-07T10:23:41.798Z,3.88
2023-03-07T10:26:12.379Z,3.95
2023-03-07T10:28:42.688Z,4.01
2023-03-07T10:31:11.050Z,4.07
2023-03-07T10:33:40.862Z,4.15
2023-03-07T10:36:35.173Z,4.22
2023-03-07T10:39:34.956Z,4.35
2023-03-07T10:42:03.131Z,4.43
2023-03-07T10:44:34.577Z,4.46
2023-03-07T10:47:03.002Z,4.50
2023-03-07T10:49:33.585Z,4.53
2023-03-07T10:52:13.230Z,4.56
2023-03-07T10:54:41.398Z,4.62
2023-03-07T10:57:14.967Z,4.68
2023-03-07T10:59:45.421Z,4.71
2023-03-07T11:02:25.982Z,4.73
2023-03-07T11:04:54.616Z,4.78
2023-03-07T11:07:29.827Z,4.86
2023-03-07T11:09:59.311Z,4.93
2023-03-07T11:12:29.527Z,4.97
2023-03-07T11:15:09.165Z,5.00
2023-03-07T11:17:45.126Z,5.05
2023-03-07T11:20:49.544Z,5.10
2023-03-07T11:23:24.583Z,5.14
2023-03-07T11:25:55.088Z,5.18
2023-03-07T11:28:27.475Z,5.21
2023-03-07T11:31:04.882Z,5.25
2023-03-07T11:33:58.534Z,5.30
2023-03-07T11:36:28.135Z,5.32
2023-03-07T11:39:15.263Z,5.31
2023-03-07T11:41:47.828Z,5.33
2023-03-07T11:44:29.106Z,5.34
2023-03-07T11:47:13.367Z,5.34
2023-03-07T11:49:57.710Z,5.34
2023-03-07T11:53:12.268Z,5.30
2023-03-07T11:56:13.208Z,5.22
2023-03-07T11:59:24.591Z,5.19
2023-03-07T12:01:56.760Z,5.16
2023-03-07T12:04:43.581Z,5.13
2023-03-07T12:07:17.992Z,5.15
2023-03-07T12:10:23.640Z,5.25
2023-03-07T12:13:10.976Z,5.34
2023-03-07T12:15:51.588Z,5.42
2023-03-07T12:18:44.081Z,5.48
2023-03-07T12:21:43.270Z,5.55
2023-03-07T12:24:23.524Z,5.62
2023-03-07T12:27:03.938Z,5.64
2023-03-07T12:30:04.411Z,5.67
2023-03-07T12:32:34.122Z,5.71
2023-03-07T12:35:21.425Z,5.73
2023-03-07T12:38:14.290Z,5.77
2023-03-07T12:40:46.667Z,5.80
2023-03-07T12:43:48.118Z,5.88
2023-03-07T12:46:34.798Z,5.97
2023-03-07T12:49:49.917Z,6.01
2023-03-07T12:52:29.550Z,6.03
2023-03-07T12:55:19.415Z,6.06
2023-03-07T12:58:07.354Z,6.02
2023-03-07T13:00:43.682Z,5.98
2023-03-07T13:03:17.211Z,5.97
2023-03-07T13:05:45.690Z,5.96
2023-03-07T13:08:20.725Z,5.97
2023-03-07T13:10:48.893Z,5.98
2023-03-07T13:13:45.326Z,5.98
2023-03-07T13:16:32.580Z,5.98
2023-03-07T13:19:35.431Z,5.98
2023-03-07T13:22:16.695Z,5.96
2023-03-07T13:24:46.109Z,5.98
2023-03-07T13:27:31.388Z,5.99
2023-03-07T13:30:08.564Z,5.99
2023-03-07T13:32:52.437Z,5.96
2023-03-07T13:35:33.673Z,5.89
2023-03-07T13:38:07.810Z,5.86
2023-03-07T13:40:38.048Z,5.86
2023-03-07T13:43:28.152Z,5.88
2023-03-07T13:46:05.215Z,5.94
2023-03-07T13:48:33.353Z,5.97
2023-03-07T13:51:01.526Z,5.95
2023-03-07T13:53:44.340Z,5.94
2023-03-07T13:56:15.486Z,5.94
2023-03-07T13:59:09.987Z,5.94
2023-03-07T14:01:53.298Z,5.95
2023-03-07T14:04:51.891Z,5.95
2023-03-07T14:07:34.290Z,5.95
2023-03-07T14:10:21.481Z,5.95
2023-03-07T14:12:52.246Z,5.96
2023-03-07T14:15:29.104Z,5.97
2023-03-07T14:18:27.810Z,5.99
2023-03-07T14:21:03.559Z,6.02
2023-03-07T14:23:59.995Z,6.06
2023-03-07T14:26:58.580Z,6.07
2023-03-07T14:29:28.098Z,6.09
2023-03-07T14:31:58.453Z,6.12
2023-03-07T14:34:35.086Z,6.13
2023-03-07T14:37:07.175Z,6.15
2023-03-07T14:39:44.940Z,6.18
2023-03-07T14:42:42.603Z,6.19
2023-03-07T14:45:13.753Z,6.19
2023-03-07T14:47:51.845Z,6.17
2023-03-07T14:50:22.375Z,6.16
2023-03-07T14:52:58.228Z,6.15
2023-03-07T14:55:28.648Z,6.14
2023-03-07T14:57:56.921Z,6.14
2023-03-07T15:00:28.901Z,6.14
2023-03-07T15:03:07.690Z,6.13
2023-03-07T15:05:38.261Z,6.15
2023-03-07T15:08:17.051Z,6.17
2023-03-07T15:10:46.455Z,6.19
2023-03-07T15:13:23.858Z,6.20
2023-03-07T15:16:21.066Z,6.22
2023-03-07T15:18:55.413Z,6.23
2023-03-07T15:21:24.922Z,6.24
2023-03-07T15:23:55.548Z,6.25
2023-03-07T15:26:25.158Z,6.24
2023-03-07T15:29:08.674Z,6.22
2023-03-07T15:31:58.641Z,6.21
2023-03-07T15:34:30.725Z,6.20
2023-03-07T15:37:22.498Z,6.18
2023-03-07T15:40:08.149Z,6.15
2023-03-07T15:42:49.834Z,6.11
2023-03-07T15:46:01.918Z,6.09
2023-03-07T15:48:38.111Z,6.08
2023-03-07T15:51:12.085Z,6.06
2023-03-07T15:53:41.917Z,6.03
2023-03-07T15:56:27.307Z,6.02
2023-03-07T15:59:00.264Z,6.00
2023-03-07T16:01:28.470Z,6.00
2023-03-07T16:04:03.265Z,6.00
2023-03-07T16:06:45.798Z,5.98
2023-03-07T16:09:16.418Z,5.97
2023-03-07T16:11:46.127Z,5.96
2023-03-07T16:14:26.604Z,5.93
2023-03-07T16:17:04.175Z,5.91
2023-03-07T16:19:32.349Z,5.88
2023-03-07T16:22:00.627Z,5.87
2023-03-07T16:24:28.798Z,5.86
2023-03-07T16:26:58.091Z,5.86
2023-03-07T16:29:26.263Z,5.85
2023-03-07T16:31:54.505Z,5.85
2023-03-07T16:34:23.428Z,5.84
2023-03-07T16:36:51.596Z,5.84
2023-03-07T16:39:19.870Z,5.86
2023-03-07T16:41:49.593Z,5.86
2023-03-07T16:44:20.006Z,5.87
2023-03-07T16:47:11.726Z,5.89
2023-03-07T16:49:40.024Z,5.90
2023-03-07T16:52:12.371Z,5.91
2023-03-07T16:54:40.955Z,5.89
2023-03-07T16:57:14.567Z,5.88
2023-03-07T16:59:46.181Z,5.88
2023-03-07T17:02:19.764Z,5.90
2023-03-07T17:04:48.081Z,5.89
2023-03-07T17:07:18.714Z,5.88
2023-03-07T17:09:46.883Z,5.88
2023-03-07T17:12:15.984Z,5.86
2023-03-07T17:14:44.925Z,5.84
2023-03-07T17:17:29.269Z,5.83
2023-03-07T17:19:57.500Z,5.79
2023-03-07T17:22:25.665Z,5.77
2023-03-07T17:24:53.742Z,5.77
2023-03-07T17:27:22.091Z,5.77
2023-03-07T17:29:54.608Z,5.74
2023-03-07T17:32:22.997Z,5.72
2023-03-07T17:34:51.256Z,5.70
2023-03-07T17:37:19.409Z,5.67
2023-03-07T17:39:48.634Z,5.64
2023-03-07T17:42:16.786Z,5.62
2023-03-07T17:44:44.954Z,5.62
2023-03-07T17:47:13.125Z,5.65
2023-03-07T17:49:41.397Z,5.65
2023-03-07T17:52:09.892Z,5.64
2023-03-07T17:54:38.561Z,5.64
2023-03-07T17:57:08.168Z,5.65
2023-03-07T17:59:36.442Z,5.63
2023-03-07T18:02:05.821Z,5.59
2023-03-07T18:04:34.017Z,5.55
2023-03-07T18:07:02.201Z,5.50
2023-03-07T18:09:31.181Z,5.48
2023-03-07T18:11:59.975Z,5.48
2023-03-07T18:14:28.549Z,5.47
2023-03-07T18:16:56.928Z,5.46
2023-03-07T18:19:26.949Z,5.45
2023-03-07T18:21:55.668Z,5.44
2023-03-07T18:24:26.623Z,5.43
2023-03-07T18:26:55.789Z,5.43
2023-03-07T18:29:24.544Z,5.44
2023-03-07T18:31:52.933Z,5.46
2023-03-07T18:34:21.604Z,5.47
2023-03-07T18:36:51.835Z,5.44
2023-03-07T18:39:21.631Z,5.14
2023-03-07T18:41:50.033Z,4.71
2023-03-07T18:44:18.896Z,4.30
2023-03-07T18:46:47.211Z,3.98
2023-03-07T18:49:16.267Z,3.71
2023-03-07T18:51:46.215Z,3.45
2023-03-07T18:54:14.461Z,3.24
2023-03-07T18:56:46.494Z,3.07
2023-03-07T18:59:15.320Z,2.87
2023-03-07T19:01:44.255Z,2.69
2023-03-07T19:04:12.466Z,2.59
2023-03-07T19:06:44.817Z,2.52
2023-03-07T19:09:18.645Z,2.44
2023-03-07T19:11:47.652Z,2.32
2023-03-07T19:14:15.910Z,2.25
2023-03-07T19:16:44.130Z,2.16
2023-03-07T19:19:12.358Z,2.07
2023-03-07T19:21:40.532Z,2.02
2023-03-07T19:24:11.586Z,1.98
2023-03-07T19:26:41.084Z,1.93
2023-03-07T19:29:11.314Z,1.91
2023-03-07T19:31:41.064Z,1.90
2023-03-07T19:34:09.788Z,1.90
2023-03-07T19:36:39.401Z,1.89
2023-03-07T19:39:15.321Z,1.87
2023-03-07T19:41:45.672Z,1.82
2023-03-07T19:44:14.791Z,1.77
2023-03-07T19:46:46.558Z,1.81
2023-03-07T19:49:18.181Z,1.81
2023-03-07T19:51:46.459Z,1.81
2023-03-07T19:54:15.352Z,1.80
2023-03-07T19:56:45.767Z,1.76
2023-03-07T19:59:14.044Z,1.72
2023-03-07T20:01:42.588Z,1.68
2023-03-07T20:04:16.218Z,1.65
2023-03-07T20:06:44.974Z,1.67
2023-03-07T20:09:13.587Z,1.66
2023-03-07T20:11:45.452Z,1.65
2023-03-07T20:14:13.738Z,1.65
2023-03-07T20:16:42.001Z,1.62
2023-03-07T20:19:10.886Z,1.59
2023-03-07T20:21:40.397Z,1.55
2023-03-07T20:24:09.400Z,1.54
2023-03-07T20:26:39.290Z,1.53
2023-03-07T20:29:09.646Z,1.52
2023-03-07T20:31:39.578Z,1.51
2023-03-07T20:34:08.448Z,1.50
2023-03-07T20:36:37.775Z,1.50
2023-03-07T20:39:08.364Z,1.49
2023-03-07T20:41:36.523Z,1.48
2023-03-07T20:44:08.008Z,1.46
2023-03-07T20:46:37.827Z,1.44
2023-03-07T20:49:06.357Z,1.40
2023-03-07T20:51:36.278Z,1.40
2023-03-07T20:54:07.285Z,1.41
2023-03-07T20:56:37.000Z,1.40
2023-03-07T20:59:06.424Z,1.42
2023-03-07T21:01:35.680Z,1.41
2023-03-07T21:04:06.417Z,1.41
2023-03-07T21:06:35.656Z,1.39
2023-03-07T21:09:08.124Z,1.37
2023-03-07T21:11:38.146Z,1.34
2023-03-07T21:14:06.727Z,1.36
2023-03-07T21:16:35.046Z,1.36
2023-03-07T21:19:05.223Z,1.37
2023-03-07T21:21:35.009Z,1.38
2023-03-07T21:24:04.017Z,1.36
2023-03-07T21:26:34.345Z,1.35
2023-03-07T21:29:05.998Z,1.33
2023-03-07T21:31:35.511Z,1.31
2023-03-07T21:34:06.742Z,1.35
2023-03-07T21:36:35.017Z,1.35
2023-03-07T21:39:10.358Z,1.37
2023-03-07T21:41:38.833Z,1.39
2023-03-07T21:44:07.531Z,1.41
2023-03-07T21:46:35.895Z,1.40
2023-03-07T21:49:04.174Z,1.38
2023-03-07T21:51:32.342Z,1.38
2023-03-07T21:54:01.025Z,1.36
2023-03-07T21:56:29.197Z,1.34
2023-03-07T21:58:57.676Z,1.31
2023-03-07T22:01:28.944Z,1.32
2023-03-07T22:03:59.483Z,1.29
2023-03-07T22:06:28.677Z,1.24
2023-03-07T22:08:59.389Z,1.19
2023-03-07T22:11:27.549Z,1.15
2023-03-07T22:13:55.941Z,1.11
2023-03-07T22:16:24.277Z,1.07
2023-03-07T22:18:56.807Z,1.00
2023-03-07T22:21:26.471Z,0.95
2023-03-07T22:23:58.342Z,0.91
2023-03-07T22:26:28.663Z,0.87
2023-03-07T22:28:56.939Z,0.83
2023-03-07T22:31:25.752Z,0.81
2023-03-07T22:33:54.101Z,0.79
2023-03-07T22:36:22.270Z,0.79
2023-03-07T22:38:55.340Z,0.80
2023-03-07T22:41:24.572Z,0.80
2023-03-07T22:43:52.835Z,0.83
2023-03-07T22:46:22.003Z,0.87
2023-03-07T22:48:55.010Z,0.89
2023-03-07T22:51:24.528Z,0.89
2023-03-07T22:53:53.099Z,0.90
2023-03-07T22:56:24.243Z,0.89
2023-03-07T22:58:52.719Z,0.86
2023-03-07T23:01:25.910Z,0.84
2023-03-07T23:03:55.316Z,0.81
2023-03-07T23:06:25.941Z,0.81
2023-03-07T23:08:54.116Z,0.80
2023-03-07T23:11:24.127Z,0.80
2023-03-07T23:13:53.116Z,0.78
2023-03-07T23:16:24.058Z,0.77
2023-03-07T23:18:55.028Z,0.79
2023-03-07T23:21:27.056Z,0.78
2023-03-07T23:23:56.048Z,0.76
2023-03-07T23:26:26.591Z,0.75
2023-03-07T23:28:55.360Z,0.73
2023-03-07T23:31:32.509Z,0.70
2023-03-07T23:34:02.455Z,0.68
2023-03-07T23:36:32.066Z,0.68
2023-03-07T23:39:00.859Z,0.66
2023-03-07T23:41:29.035Z,0.67
2023-03-07T23:43:59.653Z,0.67
2023-03-07T23:46:28.775Z,0.65
2023-03-07T23:48:57.443Z,0.63
2023-03-07T23:51:25.920Z,0.59
2023-03-07T23:53:53.988Z,0.57
2023-03-07T23:56:22.250Z,0.55
2023-03-07T23:58:51.653Z,0.53
